Vivien A — TCYC4 — position and weather

sailwx.info

Track history (hours):
 
Tides and Currents Weather Stations Pressure Air Temp Water Temp Dewpoint Dewpoint Depression Visibility Wind Speed Wind Dir Waves Ship Positions

Vivien A

Last reported at 2017-Feb-22 21:05 UTC. Time now 2017-Feb-26 16:57 UTC.
Position N 13°55' W 017°33'.

Length 210 m; draft 10.6 m.

Type: Ship (hazmat cat B). MMSI: 271040635.

Date/timePositionNaut miles runAvg speedWind from/ knotsBaromVisibWave heightAir tempDewpointWater temp
2017-Feb-22 21:05N 13°55' W 017°33'1114.7
2017-Feb-22 20:20N 14°06' W 017°32'2614.6
2017-Feb-22 18:33N 14°31' W 017°25'10 8.9
2017-Feb-22 17:28N 14°41' W 017°26'0 0.4
2017-Feb-22 16:28N 14°41' W 017°26'0 0.0
2017-Feb-22 15:16N 14°41' W 017°26'0 0.0
2017-Feb-22 14:28N 14°41' W 017°26'0 0.0
2017-Feb-22 13:31N 14°41' W 017°26'0 0.0
2017-Feb-22 12:31N 14°41' W 017°26'0 0.0
2017-Feb-22 11:31N 14°41' W 017°26'0 0.0
2017-Feb-22 10:28N 14°41' W 017°26'0 0.0
2017-Feb-22 09:25N 14°41' W 017°26'0 0.0
2017-Feb-22 08:28N 14°41' W 017°26'0 0.0
2017-Feb-22 07:28N 14°41' W 017°26'0 0.0
2017-Feb-22 06:28N 14°41' W 017°26'0 0.0
2017-Feb-22 05:28N 14°41' W 017°26'0 0.0
2017-Feb-22 04:13N 14°41' W 017°26'0 0.0
2017-Feb-22 03:16N 14°41' W 017°26'0 0.0
2017-Feb-22 01:31N 14°41' W 017°26'0 0.0
2017-Feb-21 23:28N 14°41' W 017°26'0 0.0
2017-Feb-21 22:10N 14°41' W 017°26'0 0.0
2017-Feb-21 21:31N 14°41' W 017°26'0 0.0
2017-Feb-21 20:13N 14°41' W 017°26'0 0.0
2017-Feb-21 19:31N 14°41' W 017°26'0 0.0
2017-Feb-21 18:28N 14°41' W 017°26'1 1.3
2017-Feb-21 17:33N 14°41' W 017°25'4 3.5
2017-Feb-21 16:32N 14°40' W 017°21'0 0.0
2017-Feb-21 15:20N 14°40' W 017°21'0 0.0
2017-Feb-21 14:32N 14°40' W 017°21'0 0.0
2017-Feb-21 13:32N 14°40' W 017°21'0 0.0
2017-Feb-21 12:26N 14°40' W 017°21'1 1.2
2017-Feb-21 11:33N 14°40' W 017°22'9 8.9
2017-Feb-21 10:33N 14°37' W 017°30'3812.6
2017-Feb-21 07:33N 15°13' W 017°41'1713.9
2017-Feb-21 06:19N 15°31' W 017°42'1314.2
2017-Feb-21 05:24N 15°44' W 017°43'1214.4
2017-Feb-21 04:32N 15°56' W 017°44'  
2017-Feb-18 19:13N 28°24' W 013°26'1014.5
2017-Feb-18 18:34N 28°33' W 013°21'1414.4
2017-Feb-18 17:33N 28°44' W 013°11'1514.6
2017-Feb-18 16:32N 28°57' W 013°02'13014.5
2017-Feb-18 07:32N 30°45' W 011°39'1414.6
2017-Feb-18 06:33N 30°57' W 011°29'1414.5
2017-Feb-18 05:33N 31°09' W 011°20'1914.5
2017-Feb-18 04:15N 31°24' W 011°06'3914.5
2017-Feb-18 01:33N 31°52' W 010°34'1514.9
2017-Feb-18 00:33N 32°04' W 010°24'1515.0
2017-Feb-17 23:33N 32°16' W 010°13'1514.7
2017-Feb-17 22:34N 32°27' W 010°02'1514.7
2017-Feb-17 21:31N 32°40' W 009°51'29110.8
2017-Feb-16 18:33N 35°54' W 005°29'0 0.0
2017-Feb-16 17:33N 35°54' W 005°29'0 0.0
2017-Feb-16 16:33N 35°54' W 005°29'0 0.0
2017-Feb-16 15:33N 35°54' W 005°29'0 0.0
2017-Feb-16 14:33N 35°54' W 005°29'0 0.0
2017-Feb-16 13:33N 35°54' W 005°29'0 0.0
2017-Feb-16 12:33N 35°54' W 005°29'1 0.6
2017-Feb-16 11:33N 35°54' W 005°29'3 3.3
2017-Feb-16 10:33N 35°54' W 005°33'1110.7
2017-Feb-16 09:33N 36°02' W 005°24'6 6.0
2017-Feb-16 08:32N 36°08' W 005°25'0 0.0
2017-Feb-16 07:29N 36°08' W 005°25'0 0.0
2017-Feb-16 06:32N 36°08' W 005°25'0 0.0
2017-Feb-16 05:32N 36°08' W 005°25'0 0.0
2017-Feb-16 04:29N 36°08' W 005°25'0 0.0
2017-Feb-16 03:32N 36°08' W 005°25'0 0.0
2017-Feb-16 02:29N 36°08' W 005°25'0 0.0
2017-Feb-16 01:29N 36°08' W 005°25'0 0.2
2017-Feb-16 00:33N 36°08' W 005°25'5 5.2
2017-Feb-15 23:34N 36°06' W 005°19'1 1.0
2017-Feb-15 22:33N 36°06' W 005°18'22115.7
2017-Feb-15 08:27N 37°17' W 000°58'1516.6
2017-Feb-15 07:33N 37°27' W 000°43'1616.4
2017-Feb-15 06:33N 37°39' W 000°29'10813.5
2017-Feb-14 22:33N 39°26' W 000°19'1 0.9
2017-Feb-14 21:31N 39°27' W 000°19'0 0.0
2017-Feb-14 01:33N 39°27' W 000°19'0 0.0
2017-Feb-14 00:30N 39°27' W 000°19'0 0.0
2017-Feb-13 23:33N 39°27' W 000°19'0 0.0
2017-Feb-13 22:27N 39°27' W 000°19'0 0.0
2017-Feb-13 21:18N 39°27' W 000°19'0 0.0
2017-Feb-13 20:29N 39°27' W 000°19'0 0.0
2017-Feb-13 19:33N 39°27' W 000°19'0 0.0
2017-Feb-13 18:33N 39°27' W 000°19'0 0.0
2017-Feb-13 17:33N 39°27' W 000°19'5 0.5
2017-Feb-13 07:29N 39°24' W 000°15'0 0.0
2017-Feb-13 05:23N 39°24' W 000°15'  
Track history (hours):
 
Tides and Currents Weather Stations Pressure Air Temp Water Temp Dewpoint Dewpoint Depression Visibility Wind Speed Wind Dir Waves Ship Positions

Vivien A

Last reported at 2017-Feb-22 21:05 UTC. Time now 2017-Feb-26 16:57 UTC.
Position N 13°55' W 017°33'.

Length 210 m; draft 10.6 m.

Type: Ship (hazmat cat B). MMSI: 271040635.

Date/timePositionNaut miles runAvg speedWind from/ knotsBaromVisibWave heightAir tempDewpointWater temp
2017-Feb-22 21:05N 13°55' W 017°33'1114.7
2017-Feb-22 20:20N 14°06' W 017°32'2614.6
2017-Feb-22 18:33N 14°31' W 017°25'10 8.9
2017-Feb-22 17:28N 14°41' W 017°26'0 0.4
2017-Feb-22 16:28N 14°41' W 017°26'0 0.0
2017-Feb-22 15:16N 14°41' W 017°26'0 0.0
2017-Feb-22 14:28N 14°41' W 017°26'0 0.0
2017-Feb-22 13:31N 14°41' W 017°26'0 0.0
2017-Feb-22 12:31N 14°41' W 017°26'0 0.0
2017-Feb-22 11:31N 14°41' W 017°26'0 0.0
2017-Feb-22 10:28N 14°41' W 017°26'0 0.0
2017-Feb-22 09:25N 14°41' W 017°26'0 0.0
2017-Feb-22 08:28N 14°41' W 017°26'0 0.0
2017-Feb-22 07:28N 14°41' W 017°26'0 0.0
2017-Feb-22 06:28N 14°41' W 017°26'0 0.0
2017-Feb-22 05:28N 14°41' W 017°26'0 0.0
2017-Feb-22 04:13N 14°41' W 017°26'0 0.0
2017-Feb-22 03:16N 14°41' W 017°26'0 0.0
2017-Feb-22 01:31N 14°41' W 017°26'0 0.0
2017-Feb-21 23:28N 14°41' W 017°26'0 0.0
2017-Feb-21 22:10N 14°41' W 017°26'0 0.0
2017-Feb-21 21:31N 14°41' W 017°26'0 0.0
2017-Feb-21 20:13N 14°41' W 017°26'0 0.0
2017-Feb-21 19:31N 14°41' W 017°26'0 0.0
2017-Feb-21 18:28N 14°41' W 017°26'1 1.3
2017-Feb-21 17:33N 14°41' W 017°25'4 3.5
2017-Feb-21 16:32N 14°40' W 017°21'0 0.0
2017-Feb-21 15:20N 14°40' W 017°21'0 0.0
2017-Feb-21 14:32N 14°40' W 017°21'0 0.0
2017-Feb-21 13:32N 14°40' W 017°21'0 0.0
2017-Feb-21 12:26N 14°40' W 017°21'1 1.2
2017-Feb-21 11:33N 14°40' W 017°22'9 8.9
2017-Feb-21 10:33N 14°37' W 017°30'3812.6
2017-Feb-21 07:33N 15°13' W 017°41'1713.9
2017-Feb-21 06:19N 15°31' W 017°42'1314.2
2017-Feb-21 05:24N 15°44' W 017°43'1214.4
2017-Feb-21 04:32N 15°56' W 017°44'  
2017-Feb-18 19:13N 28°24' W 013°26'1014.5
2017-Feb-18 18:34N 28°33' W 013°21'1414.4
2017-Feb-18 17:33N 28°44' W 013°11'1514.6
2017-Feb-18 16:32N 28°57' W 013°02'13014.5
2017-Feb-18 07:32N 30°45' W 011°39'1414.6
2017-Feb-18 06:33N 30°57' W 011°29'1414.5
2017-Feb-18 05:33N 31°09' W 011°20'1914.5
2017-Feb-18 04:15N 31°24' W 011°06'3914.5
2017-Feb-18 01:33N 31°52' W 010°34'1514.9
2017-Feb-18 00:33N 32°04' W 010°24'1515.0
2017-Feb-17 23:33N 32°16' W 010°13'1514.7
2017-Feb-17 22:34N 32°27' W 010°02'1514.7
2017-Feb-17 21:31N 32°40' W 009°51'29110.8
2017-Feb-16 18:33N 35°54' W 005°29'0 0.0
2017-Feb-16 17:33N 35°54' W 005°29'0 0.0
2017-Feb-16 16:33N 35°54' W 005°29'0 0.0
2017-Feb-16 15:33N 35°54' W 005°29'0 0.0
2017-Feb-16 14:33N 35°54' W 005°29'0 0.0
2017-Feb-16 13:33N 35°54' W 005°29'0 0.0
2017-Feb-16 12:33N 35°54' W 005°29'1 0.6
2017-Feb-16 11:33N 35°54' W 005°29'3 3.3
2017-Feb-16 10:33N 35°54' W 005°33'1110.7
2017-Feb-16 09:33N 36°02' W 005°24'6 6.0
2017-Feb-16 08:32N 36°08' W 005°25'0 0.0
2017-Feb-16 07:29N 36°08' W 005°25'0 0.0
2017-Feb-16 06:32N 36°08' W 005°25'0 0.0
2017-Feb-16 05:32N 36°08' W 005°25'0 0.0
2017-Feb-16 04:29N 36°08' W 005°25'0 0.0
2017-Feb-16 03:32N 36°08' W 005°25'0 0.0
2017-Feb-16 02:29N 36°08' W 005°25'0 0.0
2017-Feb-16 01:29N 36°08' W 005°25'0 0.2
2017-Feb-16 00:33N 36°08' W 005°25'5 5.2
2017-Feb-15 23:34N 36°06' W 005°19'1 1.0
2017-Feb-15 22:33N 36°06' W 005°18'22115.7
2017-Feb-15 08:27N 37°17' W 000°58'1516.6
2017-Feb-15 07:33N 37°27' W 000°43'1616.4
2017-Feb-15 06:33N 37°39' W 000°29'10813.5
2017-Feb-14 22:33N 39°26' W 000°19'1 0.9
2017-Feb-14 21:31N 39°27' W 000°19'0 0.0
2017-Feb-14 01:33N 39°27' W 000°19'0 0.0
2017-Feb-14 00:30N 39°27' W 000°19'0 0.0
2017-Feb-13 23:33N 39°27' W 000°19'0 0.0
2017-Feb-13 22:27N 39°27' W 000°19'0 0.0
2017-Feb-13 21:18N 39°27' W 000°19'0 0.0
2017-Feb-13 20:29N 39°27' W 000°19'0 0.0
2017-Feb-13 19:33N 39°27' W 000°19'0 0.0
2017-Feb-13 18:33N 39°27' W 000°19'0 0.0
2017-Feb-13 17:33N 39°27' W 000°19'5 0.5
2017-Feb-13 07:29N 39°24' W 000°15'0 0.0
2017-Feb-13 05:23N 39°24' W 000°15'  

Dump ship's entire track history